De Sui — BSFU — position and weather

sailwx.info

Track history (hours):
 
Tides and Currents Weather Stations Pressure Air Temp Water Temp Dewpoint Dewpoint Depression Visibility Wind Speed Wind Dir Waves Ship Positions

De Sui

Last reported at 2014-Aug-24 04:18 UTC. Time now 2014-Sep-02 21:22 UTC.
Position N 23°03' E 113°21'.
Warning: this ship's position is 9 days out of date.

Length 65 m; draft 5 m.

Type: Tug. MMSI: 413070000.

Date/timePositionNaut miles runAvg speedWind from/ knotsBaromVisibWave heightAir tempDewpointWater temp
2014-Aug-24 04:18N 23°03' E 113°21'0 0.0
2014-Aug-24 01:18N 23°03' E 113°21'0 0.0
2014-Aug-23 23:30N 23°03' E 113°21'0 0.0
2014-Aug-23 19:30N 23°03' E 113°21'16 1.0
2014-Aug-23 03:30N 22°52' E 113°34'2 0.1
2014-Aug-22 13:05N 22°52' E 113°33'0 0.1
2014-Aug-22 12:29N 22°52' E 113°33'0 0.0
2014-Aug-22 11:17N 22°52' E 113°33'0 0.0
2014-Aug-22 10:17N 22°52' E 113°33'2 1.6
2014-Aug-22 09:11N 22°51' E 113°34'36 7.8
2014-Aug-22 04:33N 22°17' E 113°48'7 7.4
2014-Aug-22 03:33N 22°10' E 113°47'2 1.6
2014-Aug-22 02:32N 22°09' E 113°48'0 0.0
2014-Aug-22 01:32N 22°09' E 113°48'0 0.0
2014-Aug-22 00:32N 22°09' E 113°48'0 0.1
2014-Aug-21 17:33N 22°09' E 113°48'0 0.0
2014-Aug-21 16:33N 22°09' E 113°48'0 0.0
2014-Aug-21 15:33N 22°09' E 113°48'1 1.1
2014-Aug-21 14:33N 22°08' E 113°48'3 2.8
2014-Aug-21 13:33N 22°06' E 113°46'5 5.2
2014-Aug-21 12:33N 22°01' E 113°44'5 5.2
2014-Aug-21 11:32N 21°58' E 113°39'25 4.7
2014-Aug-21 06:14N 21°44' E 113°17'  
Track history (hours):
 
Tides and Currents Weather Stations Pressure Air Temp Water Temp Dewpoint Dewpoint Depression Visibility Wind Speed Wind Dir Waves Ship Positions

De Sui

Last reported at 2014-Aug-24 04:18 UTC. Time now 2014-Sep-02 21:22 UTC.
Position N 23°03' E 113°21'.
Warning: this ship's position is 9 days out of date.

Length 65 m; draft 5 m.

Type: Tug. MMSI: 413070000.

Date/timePositionNaut miles runAvg speedWind from/ knotsBaromVisibWave heightAir tempDewpointWater temp
2014-Aug-24 04:18N 23°03' E 113°21'0 0.0
2014-Aug-24 01:18N 23°03' E 113°21'0 0.0
2014-Aug-23 23:30N 23°03' E 113°21'0 0.0
2014-Aug-23 19:30N 23°03' E 113°21'16 1.0
2014-Aug-23 03:30N 22°52' E 113°34'2 0.1
2014-Aug-22 13:05N 22°52' E 113°33'0 0.1
2014-Aug-22 12:29N 22°52' E 113°33'0 0.0
2014-Aug-22 11:17N 22°52' E 113°33'0 0.0
2014-Aug-22 10:17N 22°52' E 113°33'2 1.6
2014-Aug-22 09:11N 22°51' E 113°34'36 7.8
2014-Aug-22 04:33N 22°17' E 113°48'7 7.4
2014-Aug-22 03:33N 22°10' E 113°47'2 1.6
2014-Aug-22 02:32N 22°09' E 113°48'0 0.0
2014-Aug-22 01:32N 22°09' E 113°48'0 0.0
2014-Aug-22 00:32N 22°09' E 113°48'0 0.1
2014-Aug-21 17:33N 22°09' E 113°48'0 0.0
2014-Aug-21 16:33N 22°09' E 113°48'0 0.0
2014-Aug-21 15:33N 22°09' E 113°48'1 1.1
2014-Aug-21 14:33N 22°08' E 113°48'3 2.8
2014-Aug-21 13:33N 22°06' E 113°46'5 5.2
2014-Aug-21 12:33N 22°01' E 113°44'5 5.2
2014-Aug-21 11:32N 21°58' E 113°39'25 4.7
2014-Aug-21 06:14N 21°44' E 113°17'  

Dump ship's entire track history